Decoded Metar for KRCX (LADYSMITH/RUSK in WI, USA) (IATA:RCX) | Meteo·Mobile Aviation Weather
aviador You're here:

KRCX Decoded Metar

LADYSMITH/RUSK in WI, USA
Report Time2019-03-19 18:35:00
UTC Time2019-03-19 18:44:22
Flight Rules vfr VFR
Wind230° at 10 Gusting to 14 kt
W.Decomp.*RWY 19: 7.7 kt HW 6.4 kt RCW
RWY 14: 10.0 kt RCW
W.Rank230° ranks 27
Current wind is above 230° avg. (6.4)
Visibility9999 m
Phenomena:N/A
Clouds:Overcast 085 Hf
Expected CloudBase > 4,000 ft AGL from Temp-Dew spread
Ceiling8,500 ft
Temp06°C (ISA -7)
Dew Point-4°C (49% RH)
AAT-0.1°C
QNH1024 hPa
Density Alt144 ft
Elevation1,237 ft
Report Wrong Elevation
Raw Report
KRCX 191835Z AUTO 23010G14KT 10SM OVC085 06/M04 A3023 RMK AO2
T00621042=

Extra information for KRCX:More info

Metar Taf Metar & Taf Last 4 Metars F.Rules Stats Wind Profile Meteogram Temp Stats Airport Information Weather charts Add Link Nearby VenuesMetar ALERT Operation Metar Decoded Social comments

AIRNAV info for KRCX